createdAt,value
2019-05-28T00:00:40.715Z,16.93
2019-05-28T00:03:12.798Z,16.97
2019-05-28T00:05:44.574Z,16.92
2019-05-28T00:08:16.536Z,16.86
2019-05-28T00:10:49.356Z,16.76
2019-05-28T00:13:21.235Z,16.85
2019-05-28T00:15:53.095Z,16.89
2019-05-28T00:18:24.991Z,16.76
2019-05-28T00:20:56.851Z,16.70
2019-05-28T00:23:28.735Z,16.67
2019-05-28T00:26:00.609Z,16.61
2019-05-28T00:28:32.607Z,16.56
2019-05-28T00:31:04.593Z,16.56
2019-05-28T00:33:36.452Z,16.55
2019-05-28T00:36:08.512Z,16.69
2019-05-28T00:38:40.532Z,16.65
2019-05-28T00:41:12.311Z,16.56
2019-05-28T00:43:44.193Z,16.46
2019-05-28T00:46:15.948Z,16.42
2019-05-28T00:48:47.947Z,16.32
2019-05-28T00:51:19.806Z,16.24
2019-05-28T00:53:51.806Z,16.23
2019-05-28T00:56:23.890Z,16.17
2019-05-28T00:58:56.268Z,16.30
2019-05-28T01:01:27.751Z,16.39
2019-05-28T01:03:59.917Z,16.45
2019-05-28T01:06:31.713Z,16.43
2019-05-28T01:09:04.816Z,16.41
2019-05-28T01:11:36.374Z,16.47
2019-05-28T01:14:08.458Z,16.42
2019-05-28T01:16:40.250Z,16.39
2019-05-28T01:19:12.129Z,16.33
2019-05-28T01:21:44.017Z,16.30
2019-05-28T01:24:15.991Z,16.31
2019-05-28T01:26:47.767Z,16.32
2019-05-28T01:29:20.462Z,16.35
2019-05-28T01:31:51.932Z,16.33
2019-05-28T01:34:23.607Z,16.37
2019-05-28T01:36:55.366Z,16.45
2019-05-28T01:39:27.263Z,16.50
2019-05-28T01:41:59.020Z,16.49
2019-05-28T01:44:30.798Z,16.41
2019-05-28T01:47:02.694Z,16.45
2019-05-28T01:49:34.778Z,16.46
2019-05-28T01:52:06.552Z,16.44
2019-05-28T01:54:38.312Z,16.39
2019-05-28T01:57:10.314Z,16.35
2019-05-28T01:59:42.074Z,16.46
2019-05-28T02:02:13.950Z,16.48
2019-05-28T02:04:46.058Z,16.46
2019-05-28T02:07:17.910Z,16.46
2019-05-28T02:09:49.910Z,16.49
2019-05-28T02:12:22.709Z,16.46
2019-05-28T02:14:54.471Z,16.48
2019-05-28T02:17:26.153Z,16.56
2019-05-28T02:19:57.929Z,16.62
2019-05-28T02:22:29.808Z,16.62
2019-05-28T02:25:01.566Z,16.67
2019-05-28T02:27:33.527Z,16.70
2019-05-28T02:30:08.428Z,16.82
2019-05-28T02:32:40.168Z,16.84
2019-05-28T02:35:13.809Z,16.91
2019-05-28T02:37:45.269Z,16.95
2019-05-28T02:40:17.438Z,17.04
2019-05-28T02:42:48.928Z,17.36
2019-05-28T02:45:21.333Z,17.49
2019-05-28T02:47:53.099Z,17.48
2019-05-28T02:50:44.471Z,17.38
2019-05-28T02:53:16.290Z,17.47
2019-05-28T02:55:47.758Z,17.88
2019-05-28T02:58:21.990Z,18.34
2019-05-28T03:00:54.685Z,18.41
2019-05-28T03:03:28.201Z,18.47
2019-05-28T03:06:00.592Z,18.42
2019-05-28T03:08:32.994Z,18.23
2019-05-28T03:11:04.907Z,18.47
2019-05-28T03:13:36.636Z,18.80
2019-05-28T03:16:10.065Z,19.40
2019-05-28T03:18:42.437Z,19.95
2019-05-28T03:21:15.103Z,20.52
2019-05-28T03:23:46.486Z,20.91
2019-05-28T03:26:18.285Z,21.18
2019-05-28T03:28:50.041Z,21.44
2019-05-28T03:31:22.228Z,21.91
2019-05-28T03:33:53.594Z,21.91
2019-05-28T03:36:28.352Z,21.79
2019-05-28T03:39:00.965Z,21.83
2019-05-28T03:41:32.421Z,22.35
2019-05-28T03:44:04.190Z,22.34
2019-05-28T03:46:35.767Z,21.57
2019-05-28T03:49:07.545Z,21.20
2019-05-28T03:51:39.308Z,20.91
2019-05-28T03:54:11.200Z,20.80
2019-05-28T03:56:42.958Z,20.74
2019-05-28T03:59:14.856Z,20.69
2019-05-28T04:01:46.720Z,20.43
2019-05-28T04:04:18.511Z,20.76
2019-05-28T04:06:50.270Z,20.61
2019-05-28T04:09:21.963Z,20.86
2019-05-28T04:11:53.621Z,20.94
2019-05-28T04:14:25.416Z,20.96
2019-05-28T04:16:57.190Z,21.01
2019-05-28T04:19:28.971Z,21.20
2019-05-28T04:22:01.256Z,21.31
2019-05-28T04:24:33.238Z,21.48
2019-05-28T04:27:05.012Z,21.70
2019-05-28T04:29:36.893Z,21.76
2019-05-28T04:32:08.993Z,21.51
2019-05-28T04:34:40.853Z,21.71
2019-05-28T04:37:12.743Z,21.48
2019-05-28T04:39:44.406Z,21.51
2019-05-28T04:42:16.185Z,21.69
2019-05-28T04:44:47.942Z,21.70
2019-05-28T04:47:19.737Z,21.72
2019-05-28T04:49:51.512Z,21.84
2019-05-28T04:52:23.375Z,21.95
2019-05-28T04:54:55.256Z,22.02
2019-05-28T04:57:27.047Z,21.92
2019-05-28T04:59:58.925Z,22.04
2019-05-28T05:02:30.683Z,22.25
2019-05-28T05:05:02.584Z,22.04
2019-05-28T05:07:34.358Z,22.35
2019-05-28T05:10:07.060Z,22.46
2019-05-28T05:12:38.966Z,22.75
2019-05-28T05:15:11.471Z,22.92
2019-05-28T05:17:49.938Z,22.86
2019-05-28T05:20:23.674Z,23.09
2019-05-28T05:22:55.663Z,23.31
2019-05-28T05:25:37.087Z,23.47
2019-05-28T05:28:19.024Z,23.68
2019-05-28T05:30:53.613Z,23.59
2019-05-28T05:33:34.314Z,23.92
2019-05-28T05:36:07.791Z,24.00
2019-05-28T05:38:39.638Z,24.02
2019-05-28T05:41:11.571Z,24.19
2019-05-28T05:43:43.313Z,24.49
2019-05-28T05:46:15.071Z,24.85
2019-05-28T05:48:46.969Z,24.68
2019-05-28T05:51:18.728Z,24.88
2019-05-28T05:53:50.300Z,24.94
2019-05-28T05:56:22.075Z,25.48
2019-05-28T05:58:53.972Z,25.48
2019-05-28T06:01:25.749Z,25.50
2019-05-28T06:03:57.509Z,25.57
2019-05-28T06:06:29.511Z,25.80
2019-05-28T06:09:01.285Z,25.53
2019-05-28T06:11:33.065Z,25.60
2019-05-28T06:14:05.124Z,25.57
2019-05-28T06:16:36.919Z,25.48
2019-05-28T06:19:08.697Z,25.53
2019-05-28T06:21:40.375Z,25.62
2019-05-28T06:24:12.147Z,25.71
2019-05-28T06:26:43.922Z,25.98
2019-05-28T06:29:15.672Z,26.24
2019-05-28T06:31:47.668Z,26.27
2019-05-28T06:34:19.669Z,26.30
2019-05-28T06:36:51.439Z,26.29
2019-05-28T06:39:23.728Z,26.49
2019-05-28T06:41:55.589Z,26.53
2019-05-28T06:44:27.487Z,26.49
2019-05-28T06:46:58.937Z,26.49
2019-05-28T06:49:30.711Z,26.72
2019-05-28T06:52:02.396Z,26.64
2019-05-28T06:54:34.181Z,27.03
2019-05-28T06:57:21.831Z,27.04
2019-05-28T06:59:39.164Z,27.20
2019-05-28T07:02:10.925Z,27.51
2019-05-28T07:04:42.724Z,27.77
2019-05-28T07:07:14.599Z,28.14
2019-05-28T07:09:56.054Z,28.04
2019-05-28T07:12:28.074Z,28.31
2019-05-28T07:14:59.866Z,28.35
2019-05-28T07:17:31.731Z,27.99
2019-05-28T07:20:04.525Z,27.96
2019-05-28T07:22:36.413Z,27.86
2019-05-28T07:25:08.887Z,28.09
2019-05-28T07:27:40.373Z,28.41
2019-05-28T07:30:12.582Z,28.69
2019-05-28T07:32:44.161Z,28.76
2019-05-28T07:35:16.108Z,28.59
2019-05-28T07:37:47.568Z,28.53
2019-05-28T07:40:31.080Z,29.07
2019-05-28T07:42:55.014Z,28.96
2019-05-28T07:45:26.887Z,28.88
2019-05-28T07:47:58.653Z,28.73
2019-05-28T07:50:30.558Z,29.03
2019-05-28T07:53:02.318Z,28.93
2019-05-28T07:55:34.106Z,29.50
2019-05-28T07:58:05.457Z,29.59
2019-05-28T08:00:41.938Z,29.42
2019-05-28T08:03:13.254Z,29.37
2019-05-28T08:05:44.570Z,29.47
2019-05-28T08:08:18.201Z,28.96
2019-05-28T08:10:49.758Z,28.67
2019-05-28T08:13:21.551Z,27.97
2019-05-28T08:15:53.309Z,27.71
2019-05-28T08:18:26.023Z,28.05
2019-05-28T08:20:57.787Z,28.60
2019-05-28T08:23:29.580Z,28.61
2019-05-28T08:26:02.077Z,28.52
2019-05-28T08:28:33.951Z,27.95
2019-05-28T08:31:15.257Z,27.27
2019-05-28T08:33:38.924Z,27.26
2019-05-28T08:36:10.717Z,27.40
2019-05-28T08:38:42.488Z,27.41
2019-05-28T08:41:14.263Z,27.32
2019-05-28T08:43:46.024Z,27.35
2019-05-28T08:46:19.699Z,28.12
2019-05-28T08:48:51.845Z,29.08
2019-05-28T08:51:23.621Z,29.29
2019-05-28T08:53:55.279Z,29.44
2019-05-28T08:56:27.072Z,29.22
2019-05-28T08:58:58.851Z,29.47
2019-05-28T09:01:33.279Z,28.87
2019-05-28T09:04:04.957Z,29.24
2019-05-28T09:06:36.737Z,28.64
2019-05-28T09:09:08.517Z,28.69
2019-05-28T09:11:40.388Z,28.25
2019-05-28T09:14:12.274Z,28.51
2019-05-28T09:16:44.030Z,28.37
2019-05-28T09:19:16.728Z,28.28
2019-05-28T09:21:48.526Z,28.19
2019-05-28T09:24:20.193Z,28.08
2019-05-28T09:26:51.972Z,27.81
2019-05-28T09:29:23.781Z,27.79
2019-05-28T09:32:10.683Z,27.66
2019-05-28T09:34:46.841Z,28.39
2019-05-28T09:37:18.619Z,29.22
2019-05-28T09:39:50.390Z,29.41
2019-05-28T09:42:22.170Z,28.56
2019-05-28T09:44:53.950Z,28.45
2019-05-28T09:47:25.910Z,28.32
2019-05-28T09:49:57.703Z,28.71
2019-05-28T09:52:29.479Z,28.13
2019-05-28T09:55:01.668Z,27.91
2019-05-28T09:57:46.432Z,27.95
2019-05-28T10:00:09.927Z,28.97
2019-05-28T10:02:41.788Z,29.44
2019-05-28T10:05:13.575Z,29.44
2019-05-28T10:07:45.045Z,30.40
2019-05-28T10:10:17.435Z,30.51
2019-05-28T10:12:49.313Z,31.12
2019-05-28T10:15:21.399Z,30.93
2019-05-28T10:17:53.287Z,31.24
2019-05-28T10:20:26.701Z,31.65
2019-05-28T10:22:58.160Z,31.84
2019-05-28T10:25:29.816Z,30.78
2019-05-28T10:28:01.981Z,30.19
2019-05-28T10:30:33.800Z,30.41
2019-05-28T10:33:05.454Z,30.90
2019-05-28T10:35:37.247Z,30.10
2019-05-28T10:38:14.841Z,30.77
2019-05-28T10:40:42.338Z,30.96
2019-05-28T10:43:14.008Z,30.70
2019-05-28T10:45:45.950Z,31.30
2019-05-28T10:48:17.545Z,30.64
2019-05-28T10:50:49.325Z,30.47
2019-05-28T10:53:21.319Z,29.32
2019-05-28T10:55:52.838Z,29.17
2019-05-28T10:58:24.651Z,29.45
2019-05-28T11:00:56.447Z,28.90
2019-05-28T11:03:28.224Z,28.71
2019-05-28T11:06:00.100Z,29.01
2019-05-28T11:08:31.878Z,29.19
2019-05-28T11:11:03.739Z,30.22
2019-05-28T11:13:49.981Z,30.84
2019-05-28T11:16:09.383Z,31.34
2019-05-28T11:18:41.343Z,31.38
2019-05-28T11:21:14.016Z,30.70
2019-05-28T11:23:45.810Z,30.89
2019-05-28T11:26:17.569Z,31.15
2019-05-28T11:28:49.346Z,31.00
2019-05-28T11:31:21.188Z,31.52
2019-05-28T11:33:53.223Z,31.74
2019-05-28T11:36:25.105Z,30.80
2019-05-28T11:38:56.882Z,30.15
2019-05-28T11:41:41.368Z,29.57
2019-05-28T11:44:02.257Z,28.73
2019-05-28T11:46:34.151Z,28.63
2019-05-28T11:49:05.929Z,29.15
2019-05-28T11:51:37.691Z,28.44
2019-05-28T11:54:09.553Z,28.15
2019-05-28T11:56:41.264Z,27.92
2019-05-28T11:59:13.023Z,27.56
2019-05-28T12:01:44.811Z,27.57
2019-05-28T12:04:16.604Z,28.05
2019-05-28T12:06:48.589Z,28.60
2019-05-28T12:09:20.449Z,28.39
2019-05-28T12:11:52.431Z,28.88
2019-05-28T12:14:24.412Z,29.38
2019-05-28T12:16:56.295Z,28.80
2019-05-28T12:19:28.066Z,28.55
2019-05-28T12:22:01.286Z,28.40
2019-05-28T12:24:33.261Z,28.25
2019-05-28T12:27:05.125Z,28.16
2019-05-28T12:29:51.078Z,28.11
2019-05-28T12:32:10.984Z,28.02
2019-05-28T12:34:42.798Z,27.91
2019-05-28T12:37:14.593Z,28.42
2019-05-28T12:39:46.352Z,28.91
2019-05-28T12:42:18.131Z,29.17
2019-05-28T12:45:08.229Z,29.41
2019-05-28T12:47:23.237Z,29.14
2019-05-28T12:49:55.039Z,28.67
2019-05-28T12:52:27.198Z,28.67
2019-05-28T12:54:59.058Z,28.41
2019-05-28T12:57:31.041Z,28.48
2019-05-28T13:00:03.670Z,28.39
2019-05-28T13:02:35.617Z,28.33
2019-05-28T13:05:12.629Z,28.14
2019-05-28T13:07:44.488Z,27.97
2019-05-28T13:10:16.600Z,27.62
2019-05-28T13:12:48.041Z,27.66
2019-05-28T13:15:20.189Z,27.97
2019-05-28T13:17:52.257Z,28.72
2019-05-28T13:20:24.312Z,29.45
2019-05-28T13:22:56.190Z,29.76
2019-05-28T13:25:28.066Z,30.17
2019-05-28T13:27:59.945Z,30.11
2019-05-28T13:30:31.805Z,29.82
2019-05-28T13:33:03.846Z,29.63
2019-05-28T13:35:36.589Z,29.80
2019-05-28T13:38:25.630Z,30.39
2019-05-28T13:40:41.487Z,30.37
2019-05-28T13:43:13.257Z,30.01
2019-05-28T13:45:45.038Z,29.30
2019-05-28T13:48:16.737Z,29.08
2019-05-28T13:50:48.473Z,28.85
2019-05-28T13:53:20.372Z,28.25
2019-05-28T13:55:52.147Z,28.57
2019-05-28T13:58:24.075Z,28.81
2019-05-28T14:00:55.815Z,29.61
2019-05-28T14:03:27.665Z,29.05
2019-05-28T14:05:59.541Z,29.53
2019-05-28T14:08:45.898Z,29.83
2019-05-28T14:11:04.836Z,29.99
2019-05-28T14:13:36.732Z,30.34
2019-05-28T14:16:08.592Z,30.78
2019-05-28T14:18:40.386Z,30.70
2019-05-28T14:21:12.469Z,30.39
2019-05-28T14:23:44.152Z,29.61
2019-05-28T14:26:15.929Z,29.91
2019-05-28T14:28:47.697Z,29.53
2019-05-28T14:31:19.461Z,29.52
2019-05-28T14:33:51.660Z,29.79
2019-05-28T14:36:23.127Z,30.73
2019-05-28T14:39:03.103Z,30.99
2019-05-28T14:41:28.214Z,30.23
2019-05-28T14:44:00.094Z,30.22
2019-05-28T14:46:31.958Z,31.55
2019-05-28T14:49:07.458Z,32.74
2019-05-28T14:51:37.254Z,33.52
2019-05-28T14:54:09.128Z,35.12
2019-05-28T14:56:41.025Z,35.32
2019-05-28T14:59:13.004Z,35.85
2019-05-28T15:01:44.883Z,36.34
2019-05-28T15:04:16.661Z,35.38
2019-05-28T15:06:48.422Z,35.98
2019-05-28T15:09:21.651Z,34.27
2019-05-28T15:11:53.421Z,34.90
2019-05-28T15:14:25.420Z,34.43
2019-05-28T15:16:57.265Z,35.07
2019-05-28T15:19:29.162Z,35.12
2019-05-28T15:22:01.359Z,35.70
2019-05-28T15:24:33.125Z,36.83
2019-05-28T15:27:05.099Z,35.02
2019-05-28T15:29:37.014Z,33.41
2019-05-28T15:32:08.846Z,33.16
2019-05-28T15:34:40.828Z,32.86
2019-05-28T15:37:12.705Z,31.52
2019-05-28T15:39:44.615Z,30.38
2019-05-28T15:42:20.530Z,29.56
2019-05-28T15:44:49.587Z,30.03
2019-05-28T15:47:21.346Z,30.22
2019-05-28T15:49:53.144Z,30.65
2019-05-28T15:52:25.670Z,30.68
2019-05-28T15:54:59.255Z,30.70
2019-05-28T15:57:31.009Z,30.76
2019-05-28T16:00:02.819Z,31.10
2019-05-28T16:02:35.092Z,31.50
2019-05-28T16:05:07.279Z,31.46
2019-05-28T16:07:39.056Z,31.21
2019-05-28T16:10:10.913Z,31.12
2019-05-28T16:12:42.810Z,30.01
2019-05-28T16:15:15.107Z,31.21
2019-05-28T16:17:47.628Z,30.67
2019-05-28T16:20:22.438Z,29.63
2019-05-28T16:22:54.300Z,28.72
2019-05-28T16:25:27.570Z,28.06
2019-05-28T16:27:59.385Z,27.74
2019-05-28T16:30:31.391Z,27.26
2019-05-28T16:33:03.265Z,26.51
2019-05-28T16:35:35.143Z,26.53
2019-05-28T16:38:07.026Z,26.07
2019-05-28T16:40:38.800Z,25.75
2019-05-28T16:43:10.472Z,25.59
2019-05-28T16:45:42.147Z,25.39
2019-05-28T16:48:13.923Z,25.14
2019-05-28T16:50:45.700Z,25.00
2019-05-28T16:53:17.336Z,25.08
2019-05-28T16:55:49.153Z,24.84
2019-05-28T16:58:20.913Z,24.61
2019-05-28T17:00:52.717Z,24.47
2019-05-28T17:03:24.479Z,24.32
2019-05-28T17:05:56.360Z,24.09
2019-05-28T17:08:28.239Z,23.99
2019-05-28T17:11:00.129Z,23.77
2019-05-28T17:13:33.865Z,23.51
2019-05-28T17:16:05.818Z,23.59
2019-05-28T17:18:37.905Z,23.70
2019-05-28T17:21:10.009Z,23.61
2019-05-28T17:23:41.854Z,23.49
2019-05-28T17:26:14.254Z,23.38
2019-05-28T17:28:46.238Z,23.35
2019-05-28T17:31:17.586Z,23.47
2019-05-28T17:33:49.157Z,23.19
2019-05-28T17:36:20.850Z,22.95
2019-05-28T17:38:52.834Z,22.87
2019-05-28T17:41:26.548Z,22.84
2019-05-28T17:43:58.453Z,22.64
2019-05-28T17:46:30.528Z,22.62
2019-05-28T17:49:02.189Z,22.42
2019-05-28T17:51:33.874Z,22.31
2019-05-28T17:54:05.943Z,22.26
2019-05-28T17:56:37.396Z,22.12
2019-05-28T17:59:09.193Z,22.13
2019-05-28T18:01:40.973Z,22.07
2019-05-28T18:04:12.747Z,21.94
2019-05-28T18:06:44.528Z,21.95
2019-05-28T18:09:16.284Z,21.91
2019-05-28T18:11:48.177Z,21.89
2019-05-28T18:14:23.632Z,21.79
2019-05-28T18:16:53.267Z,21.81
2019-05-28T18:19:25.149Z,21.72
2019-05-28T18:21:56.821Z,21.65
2019-05-28T18:24:28.598Z,21.48
2019-05-28T18:27:01.402Z,21.46
2019-05-28T18:29:33.356Z,21.33
2019-05-28T18:32:05.161Z,21.27
2019-05-28T18:34:37.221Z,21.17
2019-05-28T18:37:09.118Z,21.22
2019-05-28T18:39:40.571Z,21.29
2019-05-28T18:42:16.025Z,21.43
2019-05-28T18:44:48.637Z,21.44
2019-05-28T18:47:21.834Z,21.39
2019-05-28T18:49:56.913Z,21.24
2019-05-28T18:52:27.570Z,21.26
2019-05-28T18:55:00.093Z,21.22
2019-05-28T18:57:31.715Z,21.01
2019-05-28T19:00:05.314Z,20.94
2019-05-28T19:02:37.416Z,20.81
2019-05-28T19:05:09.717Z,20.79
2019-05-28T19:07:46.724Z,20.62
2019-05-28T19:10:18.793Z,20.57
2019-05-28T19:12:50.353Z,20.51
2019-05-28T19:15:22.127Z,20.50
2019-05-28T19:17:53.923Z,20.42
2019-05-28T19:20:25.992Z,20.31
2019-05-28T19:22:58.073Z,20.23
2019-05-28T19:25:29.829Z,20.16
2019-05-28T19:28:02.544Z,20.15
2019-05-28T19:30:35.642Z,20.11
2019-05-28T19:33:07.331Z,20.09
2019-05-28T19:35:38.991Z,20.13
2019-05-28T19:38:11.597Z,20.03
2019-05-28T19:40:43.984Z,20.04
2019-05-28T19:43:15.868Z,20.15
2019-05-28T19:45:47.743Z,20.18
2019-05-28T19:48:19.500Z,20.11
2019-05-28T19:50:51.264Z,20.01
2019-05-28T19:53:23.190Z,19.97
2019-05-28T19:55:54.940Z,20.00
2019-05-28T19:58:26.727Z,19.90
2019-05-28T20:00:58.642Z,19.77
2019-05-28T20:03:30.470Z,19.59
2019-05-28T20:06:02.349Z,19.44
2019-05-28T20:08:34.806Z,19.37
2019-05-28T20:11:08.526Z,19.27
2019-05-28T20:13:40.251Z,19.25
2019-05-28T20:16:12.132Z,19.18
2019-05-28T20:18:45.164Z,19.16
2019-05-28T20:21:17.012Z,19.08
2019-05-28T20:23:48.777Z,18.96
2019-05-28T20:26:21.673Z,18.77
2019-05-28T20:29:07.890Z,18.54
2019-05-28T20:31:27.705Z,18.42
2019-05-28T20:33:59.564Z,18.35
2019-05-28T20:36:31.562Z,18.16
2019-05-28T20:39:03.674Z,18.09
2019-05-28T20:41:36.282Z,18.01
2019-05-28T20:44:08.403Z,17.86
2019-05-28T20:46:40.200Z,17.81
2019-05-28T20:49:11.875Z,17.73
2019-05-28T20:51:43.652Z,17.64
2019-05-28T20:54:15.534Z,17.54
2019-05-28T20:56:50.343Z,17.47
2019-05-28T20:59:21.539Z,17.38
2019-05-28T21:01:54.094Z,17.31
2019-05-28T21:04:25.808Z,17.27
2019-05-28T21:06:58.886Z,17.22
2019-05-28T21:09:30.690Z,17.16
2019-05-28T21:12:02.378Z,17.16
2019-05-28T21:14:34.142Z,17.16
2019-05-28T21:17:06.023Z,17.16
2019-05-28T21:19:37.777Z,17.11
2019-05-28T21:22:23.816Z,17.09
2019-05-28T21:24:42.991Z,17.01
2019-05-28T21:27:14.557Z,16.94
2019-05-28T21:29:47.359Z,17.06
2019-05-28T21:32:19.121Z,17.17
2019-05-28T21:34:54.824Z,17.23
2019-05-28T21:37:24.413Z,17.40
2019-05-28T21:39:56.081Z,17.52
2019-05-28T21:42:27.860Z,17.64
2019-05-28T21:45:00.164Z,17.83
2019-05-28T21:47:32.027Z,17.98
2019-05-28T21:50:05.577Z,18.06
2019-05-28T21:52:37.032Z,18.18
2019-05-28T21:55:09.421Z,18.26
2019-05-28T21:57:40.894Z,18.21
2019-05-28T22:00:32.508Z,18.14
2019-05-28T22:03:06.955Z,18.05
2019-05-28T22:05:38.417Z,17.97
2019-05-28T22:08:10.192Z,18.00
2019-05-28T22:10:41.968Z,17.89
2019-05-28T22:13:21.717Z,17.84
2019-05-28T22:15:46.950Z,17.81
2019-05-28T22:18:18.813Z,17.77
2019-05-28T22:20:50.504Z,17.79
2019-05-28T22:23:22.382Z,17.77
2019-05-28T22:25:54.140Z,17.71
2019-05-28T22:28:25.936Z,17.64
2019-05-28T22:30:59.661Z,17.58
2019-05-28T22:33:31.333Z,17.57
2019-05-28T22:36:03.478Z,17.55
2019-05-28T22:38:35.089Z,17.67
2019-05-28T22:41:06.763Z,17.61
2019-05-28T22:43:38.539Z,17.62
2019-05-28T22:46:10.318Z,17.62
2019-05-28T22:48:42.104Z,17.76
2019-05-28T22:51:13.868Z,17.84
2019-05-28T22:53:45.650Z,17.67
2019-05-28T22:56:17.407Z,17.65
2019-05-28T22:58:49.301Z,17.66
2019-05-28T23:01:21.080Z,17.55
2019-05-28T23:03:52.941Z,17.28
2019-05-28T23:06:24.528Z,16.95
2019-05-28T23:08:56.187Z,16.57
2019-05-28T23:11:28.373Z,16.28
2019-05-28T23:13:59.933Z,16.11
2019-05-28T23:16:31.823Z,16.06
2019-05-28T23:19:04.451Z,15.96
2019-05-28T23:21:36.005Z,15.86
2019-05-28T23:24:09.246Z,15.81
2019-05-28T23:26:40.991Z,15.77
2019-05-28T23:29:12.750Z,15.66
2019-05-28T23:31:45.676Z,15.56
2019-05-28T23:34:17.449Z,15.46
2019-05-28T23:36:49.224Z,15.38
2019-05-28T23:39:21.103Z,15.33
2019-05-28T23:41:52.863Z,15.37
2019-05-28T23:44:25.173Z,15.31
2019-05-28T23:46:56.534Z,15.27
2019-05-28T23:49:28.311Z,15.22
2019-05-28T23:52:00.189Z,15.15
2019-05-28T23:54:31.949Z,15.02
2019-05-28T23:57:03.623Z,15.00
2019-05-28T23:59:35.421Z,14.99
